createdAt,value
2019-01-18T00:03:52.015Z,1.60
2019-01-18T00:08:53.119Z,1.40
2019-01-18T00:13:54.210Z,1.30
2019-01-18T00:18:55.308Z,1.10
2019-01-18T00:23:56.407Z,1.10
2019-01-18T00:28:57.504Z,1.20
2019-01-18T00:33:58.599Z,1.10
2019-01-18T00:38:59.686Z,1.10
2019-01-18T00:44:00.903Z,1.10
2019-01-18T00:49:02.018Z,1.20
2019-01-18T00:54:03.331Z,1.20
2019-01-18T00:59:04.460Z,1.30
2019-01-18T01:04:05.678Z,1.30
2019-01-18T01:09:06.874Z,1.90
2019-01-18T01:14:07.971Z,1.40
2019-01-18T01:19:09.166Z,1.40
2019-01-18T01:24:10.370Z,1.30
2019-01-18T01:29:11.467Z,2.50
2019-01-18T01:34:12.669Z,1.30
2019-01-18T01:39:13.762Z,1.70
2019-01-18T01:44:15.564Z,1.40
2019-01-18T01:49:17.091Z,2.00
2019-01-18T01:54:18.230Z,1.30
2019-01-18T01:59:19.327Z,1.30
2019-01-18T02:04:20.446Z,2.00
2019-01-18T02:09:21.547Z,1.30
2019-01-18T02:14:22.634Z,1.30
2019-01-18T02:19:23.735Z,1.70
2019-01-18T02:24:24.834Z,1.30
2019-01-18T02:29:26.013Z,1.20
2019-01-18T02:34:27.111Z,1.20
2019-01-18T02:39:28.203Z,1.50
2019-01-18T02:44:29.326Z,1.10
2019-01-18T02:49:30.416Z,1.00
2019-01-18T02:54:31.530Z,1.00
2019-01-18T02:59:32.626Z,1.00
2019-01-18T03:04:33.748Z,0.90
2019-01-18T03:09:34.840Z,1.00
2019-01-18T03:14:36.041Z,1.00
2019-01-18T03:19:37.133Z,1.10
2019-01-18T03:24:38.519Z,1.00
2019-01-18T03:29:39.612Z,1.00
2019-01-18T03:34:40.713Z,0.90
2019-01-18T03:39:41.802Z,1.20
2019-01-18T03:44:42.888Z,1.00
2019-01-18T03:49:43.980Z,1.00
2019-01-18T03:54:45.091Z,0.90
2019-01-18T03:59:46.179Z,0.90
2019-01-18T04:04:47.328Z,0.90
2019-01-18T04:09:48.519Z,0.90
2019-01-18T04:14:49.625Z,0.90
2019-01-18T04:19:50.829Z,1.40
2019-01-18T04:24:51.916Z,0.90
2019-01-18T04:29:53.011Z,0.90
2019-01-18T04:34:54.110Z,0.80
2019-01-18T04:39:55.187Z,1.30
2019-01-18T04:44:56.370Z,0.80
2019-01-18T04:49:57.580Z,1.10
2019-01-18T04:54:58.840Z,0.80
2019-01-18T04:59:59.938Z,0.80
2019-01-18T05:05:01.046Z,0.80
2019-01-18T05:10:05.852Z,0.80
2019-01-18T05:15:10.248Z,0.80
2019-01-18T05:20:11.647Z,1.40
2019-01-18T05:25:13.172Z,0.80
2019-01-18T05:30:25.776Z,0.90
2019-01-18T05:35:27.075Z,0.90
2019-01-18T05:40:28.159Z,0.90
2019-01-18T05:45:29.356Z,0.80
2019-01-18T05:50:30.455Z,0.90
2019-01-18T05:55:31.667Z,0.90
2019-01-18T06:00:34.966Z,0.90
2019-01-18T06:05:38.892Z,0.90
2019-01-18T06:10:39.978Z,1.40
2019-01-18T06:15:41.089Z,0.90
2019-01-18T06:20:42.195Z,0.80
2019-01-18T06:25:43.300Z,0.80
2019-01-18T06:30:44.536Z,0.80
2019-01-18T06:35:47.567Z,0.80
2019-01-18T06:40:49.779Z,0.80
2019-01-18T06:45:50.867Z,0.80
2019-01-18T06:50:51.969Z,0.70
2019-01-18T06:55:53.074Z,0.70
2019-01-18T07:00:54.171Z,0.60
2019-01-18T07:05:55.284Z,0.60
2019-01-18T07:10:56.381Z,0.40
2019-01-18T07:15:57.685Z,0.10
2019-01-18T07:20:58.793Z,0.40
2019-01-18T07:25:59.898Z,-0.40
2019-01-18T07:31:01.201Z,-0.60
2019-01-18T07:36:02.706Z,-0.70
2019-01-18T07:41:03.830Z,-0.60
2019-01-18T07:46:05.049Z,-0.60
2019-01-18T07:51:06.426Z,-0.50
2019-01-18T07:56:07.648Z,-0.40
2019-01-18T08:01:08.831Z,-0.30
2019-01-18T08:06:09.932Z,1.00
2019-01-18T08:11:11.038Z,0.00
2019-01-18T08:16:12.138Z,0.10
2019-01-18T08:21:13.236Z,0.10
2019-01-18T08:26:14.357Z,0.30
2019-01-18T08:31:15.555Z,0.50
2019-01-18T08:36:16.884Z,0.60
2019-01-18T08:41:18.071Z,0.70
2019-01-18T08:46:19.266Z,0.80
2019-01-18T08:51:20.483Z,0.90
2019-01-18T08:56:21.706Z,1.40
2019-01-18T09:01:22.808Z,1.10
2019-01-18T09:06:23.943Z,1.10
2019-01-18T09:11:25.031Z,1.70
2019-01-18T09:16:26.122Z,1.30
2019-01-18T09:21:27.222Z,1.50
2019-01-18T09:26:28.350Z,1.60
2019-01-18T09:31:29.439Z,1.60
2019-01-18T09:36:30.538Z,2.50
2019-01-18T09:41:31.624Z,1.50
2019-01-18T09:46:32.722Z,1.50
2019-01-18T09:51:33.950Z,2.50
2019-01-18T09:56:35.060Z,1.80
2019-01-18T10:01:36.163Z,1.90
2019-01-18T10:06:37.279Z,2.10
2019-01-18T10:11:38.367Z,3.10
2019-01-18T10:16:39.469Z,2.00
2019-01-18T10:21:40.665Z,3.30
2019-01-18T10:26:41.776Z,2.50
2019-01-18T10:31:42.878Z,2.70
2019-01-18T10:36:43.963Z,2.70
2019-01-18T10:41:45.051Z,2.80
2019-01-18T10:46:46.270Z,4.10
2019-01-18T10:51:47.503Z,3.40
2019-01-18T10:56:48.679Z,3.80
2019-01-18T11:01:49.781Z,4.10
2019-01-18T11:06:51.031Z,4.40
2019-01-18T11:11:52.219Z,4.40
2019-01-18T11:16:53.319Z,5.30
2019-01-18T11:21:54.524Z,4.40
2019-01-18T11:26:55.617Z,4.70
2019-01-18T11:31:56.739Z,5.00
2019-01-18T11:36:58.235Z,5.60
2019-01-18T11:41:59.556Z,5.00
2019-01-18T11:47:00.748Z,5.40
2019-01-18T11:52:01.943Z,3.90
2019-01-18T11:57:03.261Z,4.80
2019-01-18T12:02:04.499Z,4.00
2019-01-18T12:07:05.621Z,4.50
2019-01-18T12:12:06.718Z,5.30
2019-01-18T12:17:08.184Z,5.20
2019-01-18T12:22:09.391Z,4.60
2019-01-18T12:27:10.486Z,4.10
2019-01-18T12:32:11.629Z,3.80
2019-01-18T12:37:12.846Z,4.40
2019-01-18T12:42:13.935Z,4.60
2019-01-18T12:47:15.071Z,4.60
2019-01-18T12:52:16.209Z,4.50
2019-01-18T12:57:17.534Z,4.70
2019-01-18T13:02:18.730Z,4.90
2019-01-18T13:07:19.870Z,4.70
2019-01-18T13:12:20.953Z,5.00
2019-01-18T13:17:22.054Z,5.10
2019-01-18T13:22:26.068Z,5.20
2019-01-18T13:27:26.401Z,6.50
2019-01-18T13:32:27.837Z,7.30
2019-01-18T13:37:28.967Z,8.30
2019-01-18T13:42:30.042Z,9.80
2019-01-18T13:47:31.155Z,9.80
2019-01-18T13:52:32.244Z,8.50
2019-01-18T13:57:33.372Z,7.10
2019-01-18T14:02:34.525Z,6.80
2019-01-18T14:07:36.727Z,6.20
2019-01-18T14:12:37.947Z,6.00
2019-01-18T14:17:39.066Z,5.90
2019-01-18T14:22:40.464Z,5.70
2019-01-18T14:27:41.677Z,5.40
2019-01-18T14:32:43.815Z,5.10
2019-01-18T14:37:45.152Z,4.80
2019-01-18T14:42:47.860Z,4.90
2019-01-18T14:47:49.018Z,4.70
2019-01-18T14:52:50.211Z,4.30
2019-01-18T14:57:51.521Z,4.10
2019-01-18T15:02:52.745Z,4.00
2019-01-18T15:07:54.088Z,3.80
2019-01-18T15:12:59.001Z,3.90
2019-01-18T15:18:00.147Z,3.60
2019-01-18T15:23:01.461Z,3.20
2019-01-18T15:28:03.402Z,3.00
2019-01-18T15:33:09.120Z,2.70
2019-01-18T15:38:07.716Z,2.30
2019-01-18T15:43:10.123Z,2.10
2019-01-18T15:48:11.328Z,1.30
2019-01-18T15:53:12.647Z,2.10
2019-01-18T15:58:13.878Z,0.40
2019-01-18T16:03:16.093Z,0.10
2019-01-18T16:08:17.611Z,-0.20
2019-01-18T16:13:18.855Z,-0.50
2019-01-18T16:18:22.380Z,-0.60
2019-01-18T16:23:23.656Z,-0.60
2019-01-18T16:28:24.795Z,-0.70
2019-01-18T16:33:26.087Z,-0.70
2019-01-18T16:38:27.184Z,-0.70
2019-01-18T16:43:30.899Z,-0.60
2019-01-18T16:48:32.043Z,-0.60
2019-01-18T16:53:33.353Z,-0.80
2019-01-18T16:58:34.499Z,-0.90
2019-01-18T17:03:35.725Z,-1.10
2019-01-18T17:08:37.541Z,-1.20
2019-01-18T17:13:38.894Z,-1.20
2019-01-18T17:18:40.402Z,-1.20
2019-01-18T17:23:41.501Z,-1.20
2019-01-18T17:28:42.648Z,-1.20
2019-01-18T17:33:44.184Z,-1.40
2019-01-18T17:38:53.104Z,-1.60
2019-01-18T17:44:18.228Z,-1.60
2019-01-18T17:49:52.446Z,-1.50
2019-01-18T17:54:57.648Z,-1.30
2019-01-18T18:00:07.503Z,-1.10
2019-01-18T18:05:24.200Z,-1.10
2019-01-18T18:10:35.848Z,-1.30
2019-01-18T18:16:02.167Z,-1.40
2019-01-18T18:21:19.448Z,-1.50
2019-01-18T18:26:33.392Z,-1.60
2019-01-18T18:31:59.479Z,-1.60
2019-01-18T18:37:19.661Z,-1.60
2019-01-18T18:42:41.247Z,-1.60
2019-01-18T18:48:18.435Z,-1.50
2019-01-18T18:53:41.539Z,-1.50
2019-01-18T18:58:52.175Z,-1.50
2019-01-18T19:04:00.187Z,-1.50
2019-01-18T19:09:14.542Z,-1.60
2019-01-18T19:14:22.192Z,-1.60
2019-01-18T19:19:46.736Z,-1.70
2019-01-18T19:25:03.983Z,-1.70
2019-01-18T19:30:34.185Z,-1.90
2019-01-18T19:35:54.027Z,-2.00
2019-01-18T19:41:05.122Z,-2.10
2019-01-18T19:46:22.251Z,-2.10
2019-01-18T19:51:29.958Z,-2.10
2019-01-18T19:56:41.035Z,-2.20
2019-01-18T20:02:20.326Z,-2.30
2019-01-18T20:07:48.308Z,-2.50
2019-01-18T20:13:07.881Z,-2.60
2019-01-18T20:18:27.761Z,-2.80
2019-01-18T20:24:04.871Z,-2.90
2019-01-18T20:29:30.983Z,-3.00
2019-01-18T20:34:42.177Z,-3.10
2019-01-18T20:40:02.538Z,-3.20
2019-01-18T20:45:16.381Z,-3.10
2019-01-18T20:50:54.834Z,-2.80
2019-01-18T20:56:19.869Z,-2.50
2019-01-18T21:01:42.722Z,-2.50
2019-01-18T21:06:56.482Z,-2.50
2019-01-18T21:12:04.369Z,-2.60
2019-01-18T21:17:32.248Z,-4.10
2019-01-18T21:22:58.477Z,-2.90
2019-01-18T21:28:24.933Z,-3.00
2019-01-18T21:33:42.148Z,-3.20
2019-01-18T21:39:08.023Z,-3.20
2019-01-18T21:44:29.968Z,-3.20
2019-01-18T21:49:34.898Z,-2.90
2019-01-18T21:54:54.479Z,-2.90
2019-01-18T22:00:33.404Z,-3.10
2019-01-18T22:05:56.556Z,-3.30
2019-01-18T22:11:28.356Z,-3.40
2019-01-18T22:16:51.387Z,-3.40
2019-01-18T22:22:08.194Z,-3.50
2019-01-18T22:27:25.430Z,-3.40
2019-01-18T22:32:38.064Z,-3.40
2019-01-18T22:37:51.771Z,-3.50
2019-01-18T22:43:11.959Z,-3.30
2019-01-18T22:48:26.045Z,-3.40
2019-01-18T22:53:58.138Z,-3.40
2019-01-18T22:59:03.210Z,-3.30
2019-01-18T23:04:27.304Z,-3.30
2019-01-18T23:09:53.548Z,-3.40
2019-01-18T23:15:19.407Z,-3.60
2019-01-18T23:20:47.059Z,-3.60
2019-01-18T23:25:51.985Z,-3.70
2019-01-18T23:30:56.909Z,-3.70
2019-01-18T23:36:27.965Z,-3.80
2019-01-18T23:41:52.340Z,-3.90
2019-01-18T23:47:06.884Z,-3.90
2019-01-18T23:52:14.613Z,-4.00
2019-01-18T23:57:31.055Z,-4.10
